OIIP  Payam  Airport

Iran

Add Bookmark
ICAO OIIP
Type Airport
Status Operational
Latitude
35° 46' 33" N
35.776100
Longitude
50° 49' 36" E
50.826698
Local (GMT +3.5 ) UTC
Sep 25, 2016 12:22 am Sep 24, 2016 20:52
Sunrise-Sunset Local UTC
Begin Civil Twilight 05:30 am 02:00
Sunrise 05:56 am 02:26
Sunset 06:00 pm 14:30
End Civil Twilight 06:25 pm 14:55
VFR
VFR
MVFR
MVFR
IFR
IFR
LIFR
LIFR
Unknown
Unavailable

Current Weather

METAR Observed VFR
OIIP 241800Z 27016KT CAVOK 22/03 Q1011 Sat, Sep 24, 2016 @ 18:00 UTC
(2 Hours, 52 Minutes ago)
Visual Flight Rules
Wind Visibility Conditions
270° at 16 knots (30 kph) 10 km or more
  • No significant weather
Temperatures Readings Precipitation
Current Temp
22°C
72°F
Dewpoint
3°C
37°F
Humidity 29%
Altimeter 29.85" Hg
Sea Level Pressure 1,011 mb
Field Elevation
1,271 m
4,170 ft
None Recorded

Additional weather within a 92.6km radius of OIIP

Map ICAO Location
OIII 45km E/SE (102°)
OIIE 49.6km SE (144°)
OIIK 87km NW (307°)
VFR
VFR
MVFR
MVFR
IFR
IFR
LIFR
LIFR
Unknown
Unavailable
-
-

CheckWX.com is intended as a tool to help pilots better visualize weather data. It is not intended as a substitute for an official weather briefing obtained from a Flight Service Station. CheckWX.com does not meet the FAA requirements for an official pre-flight weather briefing. Therefore, it's important that pilots still call and obtain an official FSS pre-flight weather briefing.

© 2007-2016 CheckWX.com
20:52:07 UTC